Time;durP1;ratioP1;P1;durP2;ratioP2;P2;SDS_P1;SDS_P2;PMS_P1;PMS_P2;Temp;Humidity;BMP_temperature;BMP_pressure;BME280_temperature;BME280_humidity;BME280_pressure;Samples;Min_cycle;Max_cycle;Signal;HPM_P1;HPM_P2
2023/07/13 00:00:46;;;;;;;;;;;;;;;19.30;77.84;92966.09;2051856;70;20073;-80
2023/07/13 00:03:13;;;;;;;;;;;;;;;19.18;78.88;92971.38;2048351;70;20058;-78
2023/07/13 00:05:39;;;;;;;;;;;;;;;19.01;80.01;92961.56;2051572;70;20081;-77
2023/07/13 00:08:05;;;;;;;;;;;;;;;19.02;80.57;92965.88;2051698;70;20133;-77
2023/07/13 00:10:31;;;;;;;;;;;;;;;19.07;80.35;92977.44;2051305;70;20182;-78
2023/07/13 00:12:58;;;;;;;;;;;;;;;19.11;80.46;92986.84;2051611;70;20066;-78
2023/07/13 00:15:24;;;;;;;;;;;;;;;19.19;79.01;92989.97;2051597;70;20160;-82
2023/07/13 00:17:51;;;;;;;;;;;;;;;19.11;79.39;92981.16;2050950;70;20063;-79
2023/07/13 00:20:16;;;;;;;;;;;;;;;19.13;78.92;92969.78;2048538;70;20111;-77
2023/07/13 00:22:42;;;;;;;;;;;;;;;18.98;80.10;92970.72;2052859;70;20165;-77
2023/07/13 00:25:10;;;;;;;;;;;;;;;19.10;79.50;92962.56;2048233;70;20058;-77
2023/07/13 00:27:36;;;;;;;;;;;;;;;19.16;79.03;92956.34;2051411;70;20149;-78
2023/07/13 00:30:02;;;;;;;;;;;;;;;19.28;78.69;92959.56;2051252;70;20270;-77
2023/07/13 00:32:30;;;;;;;;;;;;;;;19.14;80.54;92941.97;2048074;70;20081;-78
2023/07/13 00:34:58;;;;;;;;;;;;;;;18.77;79.25;92946.47;2051470;70;20068;-79
2023/07/13 00:37:23;;;;;;;;;;;;;;;18.78;78.46;92934.41;2051270;70;20050;-78
2023/07/13 00:39:50;;;;;;;;;;;;;;;18.81;79.50;92923.78;2051572;70;20067;-79
2023/07/13 00:42:15;;;;;;;;;;;;;;;19.05;78.32;92916.03;2048144;70;20161;-78
2023/07/13 00:45:00;;;;;;;;;;;;;;;18.96;78.52;92908.59;2048461;70;20074;-79
2023/07/13 00:47:26;;;;;;;;;;;;;;;18.89;78.16;92911.94;2048356;70;20050;-78
2023/07/13 00:49:51;;;;;;;;;;;;;;;18.61;77.04;92889.59;2047930;70;20392;-78
2023/07/13 00:52:17;;;;;;;;;;;;;;;18.49;76.82;92900.56;2048346;70;20051;-81
2023/07/13 00:54:45;;;;;;;;;;;;;;;18.71;75.52;92906.34;2051616;70;20078;-81
2023/07/13 00:57:14;;;;;;;;;;;;;;;18.58;76.54;92915.84;2045439;70;20069;-77
2023/07/13 00:59:41;;;;;;;;;;;;;;;18.53;78.11;92915.69;2051593;70;20051;-78
2023/07/13 01:02:07;;;;;;;;;;;;;;;18.74;76.34;92922.13;2045289;70;20082;-80
2023/07/13 01:04:33;;;;;;;;;;;;;;;18.75;77.00;92917.88;2044607;70;20098;-80
2023/07/13 01:06:58;;;;;;;;;;;;;;;18.87;77.64;92926.84;2047844;70;20103;-81
2023/07/13 01:09:26;;;;;;;;;;;;;;;18.76;78.66;92927.91;2054158;70;20109;-78
2023/07/13 01:11:52;;;;;;;;;;;;;;;18.78;79.57;92925.84;2051148;70;20058;-78
2023/07/13 01:14:17;;;;;;;;;;;;;;;18.87;78.29;92937.53;2054575;69;20058;-81
2023/07/13 01:16:47;;;;;;;;;;;;;;;18.89;77.75;92931.91;2053651;70;20069;-78
2023/07/13 01:19:35;;;;;;;;;;;;;;;18.84;79.17;92928.19;2054655;70;20125;-77
2023/07/13 01:22:08;;;;;;;;;;;;;;;18.68;79.99;92922.63;2054599;70;20066;-79
2023/07/13 01:24:38;;;;;;;;;;;;;;;18.75;79.78;92920.75;2050520;69;20094;-76
2023/07/13 01:27:05;;;;;;;;;;;;;;;18.75;80.41;92915.75;2054795;70;20238;-77
2023/07/13 01:29:32;;;;;;;;;;;;;;;18.88;78.89;92910.47;2054435;70;20152;-77
2023/07/13 01:31:59;;;;;;;;;;;;;;;18.79;79.21;92898.78;2052019;70;20057;-79
2023/07/13 01:34:27;;;;;;;;;;;;;;;18.82;78.35;92896.72;2051821;70;20428;-79
2023/07/13 01:36:53;;;;;;;;;;;;;;;18.77;79.16;92900.84;2055045;70;20047;-80
2023/07/13 01:39:20;;;;;;;;;;;;;;;18.90;77.63;92899.13;2051556;70;20066;-82
2023/07/13 01:41:46;;;;;;;;;;;;;;;18.81;78.80;92897.41;2048130;70;20071;-81
2023/07/13 01:44:11;;;;;;;;;;;;;;;18.74;79.39;92902.19;2054731;70;20487;-82
2023/07/13 01:46:37;;;;;;;;;;;;;;;18.69;79.22;92904.16;2051662;70;20184;-80
2023/07/13 01:49:03;;;;;;;;;;;;;;;18.80;78.61;92908.06;2054426;70;20224;-79
2023/07/13 01:51:28;;;;;;;;;;;;;;;18.71;79.36;92909.19;2051140;70;20050;-82
2023/07/13 01:53:53;;;;;;;;;;;;;;;18.71;79.81;92912.03;2048983;70;20082;-81
2023/07/13 01:56:19;;;;;;;;;;;;;;;18.66;80.03;92910.44;2052767;69;20046;-80
2023/07/13 01:58:46;;;;;;;;;;;;;;;18.67;79.62;92891.91;2049436;70;20484;-81
2023/07/13 02:01:11;;;;;;;;;;;;;;;18.74;79.37;92902.19;2053839;69;20595;-80
2023/07/13 02:03:37;;;;;;;;;;;;;;;18.67;79.70;92886.22;2050577;69;20059;-81
2023/07/13 02:06:03;;;;;;;;;;;;;;;18.67;79.32;92886.22;2052536;70;20058;-82
2023/07/13 02:08:29;;;;;;;;;;;;;;;18.73;79.16;92887.16;2052024;70;20058;-80
2023/07/13 02:10:54;;;;;;;;;;;;;;;18.77;77.92;92887.31;2055680;70;20090;-82
2023/07/13 02:13:20;;;;;;;;;;;;;;;18.59;79.48;92877.38;2051884;70;20161;-79
2023/07/13 02:15:45;;;;;;;;;;;;;;;18.61;79.29;92877.47;2051833;70;20086;-81
2023/07/13 02:18:10;;;;;;;;;;;;;;;18.57;79.38;92880.19;2051884;70;20046;-79
2023/07/13 02:20:36;;;;;;;;;;;;;;;18.64;79.05;92873.28;2054730;69;20058;-82
2023/07/13 02:23:02;;;;;;;;;;;;;;;18.70;78.06;92867.81;2055555;69;20486;-81
2023/07/13 02:25:27;;;;;;;;;;;;;;;18.55;79.22;92858.00;2052010;70;20147;-80
2023/07/13 02:27:53;;;;;;;;;;;;;;;18.45;79.09;92871.94;2055307;70;20061;-81
2023/07/13 02:30:18;;;;;;;;;;;;;;;18.54;78.95;92874.38;2055044;70;20051;-79
2023/07/13 02:32:44;;;;;;;;;;;;;;;18.47;79.71;92881.28;2048704;70;20116;-77
2023/07/13 02:35:10;;;;;;;;;;;;;;;18.44;79.25;92882.59;2054523;70;20078;-77
2023/07/13 02:37:37;;;;;;;;;;;;;;;18.32;80.00;92884.28;2053467;70;20104;-81
2023/07/13 02:40:08;;;;;;;;;;;;;;;18.54;77.97;92885.06;2050329;70;20081;-82
2023/07/13 02:42:34;;;;;;;;;;;;;;;18.46;78.14;92884.78;2055512;70;20054;-78
2023/07/13 02:45:00;;;;;;;;;;;;;;;18.34;79.43;92881.53;2053800;69;20094;-81
2023/07/13 02:47:26;;;;;;;;;;;;;;;18.36;79.68;92875.88;2047959;70;20918;-80
2023/07/13 02:49:52;;;;;;;;;;;;;;;18.36;79.98;92879.47;2046980;70;20518;-79
2023/07/13 02:52:17;;;;;;;;;;;;;;;18.43;79.56;92880.41;2050106;70;20046;-81
2023/07/13 02:54:43;;;;;;;;;;;;;;;18.45;79.35;92872.66;2054174;69;20070;-81
2023/07/13 02:57:11;;;;;;;;;;;;;;;18.23;80.40;92871.88;2049476;70;20058;-81
2023/07/13 02:59:39;;;;;;;;;;;;;;;18.05;81.80;92863.41;2051989;69;20146;-82
2023/07/13 03:02:04;;;;;;;;;;;;;;;18.18;80.64;92868.16;2050467;70;20265;-81
2023/07/13 03:04:31;;;;;;;;;;;;;;;18.12;81.11;92867.22;2051214;69;20070;-80
2023/07/13 03:06:57;;;;;;;;;;;;;;;18.26;80.69;92876.25;2048858;70;20100;-81
2023/07/13 03:09:26;;;;;;;;;;;;;;;18.29;80.62;92872.84;2049663;70;20486;-76
2023/07/13 03:11:54;;;;;;;;;;;;;;;18.28;79.64;92865.69;2050965;70;20070;-81
2023/07/13 03:14:27;;;;;;;;;;;;;;;18.34;79.04;92870.84;2051578;70;20746;-81
2023/07/13 03:16:53;;;;;;;;;;;;;;;18.23;79.77;92878.31;2051148;70;20700;-82
2023/07/13 03:19:21;;;;;;;;;;;;;;;18.24;79.82;92868.38;2048773;70;20047;-81
2023/07/13 03:21:49;;;;;;;;;;;;;;;18.36;78.67;92864.50;2050157;70;20051;-81
2023/07/13 03:24:15;;;;;;;;;;;;;;;18.29;79.25;92867.13;2050994;70;20153;-80
2023/07/13 03:26:41;;;;;;;;;;;;;;;18.31;79.22;92866.47;2051011;70;20058;-81
2023/07/13 03:29:07;;;;;;;;;;;;;;;18.23;80.24;92864.06;2050353;70;20059;-78
2023/07/13 03:31:34;;;;;;;;;;;;;;;18.06;81.24;92869.88;2049715;70;20074;-79
2023/07/13 03:34:00;;;;;;;;;;;;;;;18.19;80.19;92883.13;2048979;70;20147;-80
2023/07/13 03:36:28;;;;;;;;;;;;;;;18.19;80.13;92885.97;2050716;70;20141;-80
2023/07/13 03:38:58;;;;;;;;;;;;;;;18.23;79.20;92888.97;2054615;70;20116;-81
2023/07/13 03:41:28;;;;;;;;;;;;;;;18.18;80.03;92895.91;2054702;70;20051;-81
2023/07/13 03:43:54;;;;;;;;;;;;;;;18.14;79.18;92893.66;2054579;70;20415;-79
2023/07/13 03:46:22;;;;;;;;;;;;;;;18.20;78.98;92896.72;2051867;70;20055;-79
2023/07/13 03:48:49;;;;;;;;;;;;;;;18.32;77.64;92892.84;2051833;70;20070;-83
2023/07/13 03:51:16;;;;;;;;;;;;;;;18.35;78.92;92889.41;2049149;70;20062;-81
2023/07/13 03:53:42;;;;;;;;;;;;;;;18.11;80.68;92891.41;2052709;70;20403;-82
2023/07/13 03:56:09;;;;;;;;;;;;;;;18.28;78.60;92891.31;2051777;70;20051;-82
2023/07/13 03:58:36;;;;;;;;;;;;;;;18.27;79.02;92889.13;2054447;70;20494;-82
2023/07/13 04:01:10;;;;;;;;;;;;;;;18.32;79.20;92887.13;2051857;70;20039;-80
2023/07/13 04:03:36;;;;;;;;;;;;;;;18.32;78.86;92878.59;2049058;70;20117;-83
2023/07/13 04:06:04;;;;;;;;;;;;;;;18.39;77.41;92886.69;2052239;70;20047;-81
2023/07/13 04:08:31;;;;;;;;;;;;;;;18.27;78.33;92872.03;2054388;70;20070;-82
2023/07/13 04:10:57;;;;;;;;;;;;;;;18.18;79.09;92865.31;2051714;70;20086;-81
2023/07/13 04:13:22;;;;;;;;;;;;;;;18.08;80.17;92867.06;2051676;70;20086;-82
2023/07/13 04:15:48;;;;;;;;;;;;;;;18.12;81.16;92867.22;2054034;70;20054;-82
2023/07/13 04:18:13;;;;;;;;;;;;;;;18.12;80.90;92878.63;2049500;70;20054;-80
2023/07/13 04:20:39;;;;;;;;;;;;;;;18.21;80.87;92869.69;2055470;70;20057;-82
2023/07/13 04:23:04;;;;;;;;;;;;;;;18.21;80.30;92878.25;2055360;70;20106;-82
2023/07/13 04:25:30;;;;;;;;;;;;;;;18.16;80.84;92865.25;2055580;69;20054;-81
2023/07/13 04:27:58;;;;;;;;;;;;;;;18.25;80.92;92871.97;2055597;70;20478;-81
2023/07/13 04:30:24;;;;;;;;;;;;;;;18.17;80.43;92880.94;2055552;70;20097;-79
2023/07/13 04:32:51;;;;;;;;;;;;;;;18.25;79.92;92889.06;2055446;70;20082;-77
2023/07/13 04:35:17;;;;;;;;;;;;;;;18.28;78.85;92894.19;2055541;69;20121;-80
2023/07/13 04:37:46;;;;;;;;;;;;;;;18.15;80.58;92891.56;2055588;70;20123;-82
2023/07/13 04:40:12;;;;;;;;;;;;;;;18.25;80.32;92886.94;2055235;70;20051;-82
2023/07/13 04:42:38;;;;;;;;;;;;;;;18.31;80.75;92891.38;2055561;70;20058;-80
2023/07/13 04:45:05;;;;;;;;;;;;;;;18.24;81.11;92899.72;2052275;70;20482;-80
2023/07/13 04:47:31;;;;;;;;;;;;;;;18.36;80.63;92902.25;2055549;70;20058;-82
2023/07/13 04:49:57;;;;;;;;;;;;;;;18.42;80.25;92896.78;2055408;69;20081;-82
2023/07/13 04:52:24;;;;;;;;;;;;;;;18.42;80.16;92904.63;2055390;70;20482;-81
2023/07/13 04:54:49;;;;;;;;;;;;;;;18.54;79.80;92905.03;2052157;70;20590;-81
2023/07/13 04:57:15;;;;;;;;;;;;;;;18.57;79.30;92906.56;2055557;69;20145;-82
2023/07/13 04:59:40;;;;;;;;;;;;;;;18.58;80.81;92910.13;2055480;70;20062;-81
2023/07/13 05:02:06;;;;;;;;;;;;;;;18.60;79.64;92908.09;2055478;70;20184;-82
2023/07/13 05:04:33;;;;;;;;;;;;;;;18.01;81.94;92906.00;2055409;70;20467;-82
2023/07/13 05:06:59;;;;;;;;;;;;;;;18.33;81.41;92895.03;2055567;70;20497;-82
2023/07/13 05:09:26;;;;;;;;;;;;;;;18.41;81.61;92886.03;2052278;70;20078;-80
2023/07/13 05:11:52;;;;;;;;;;;;;;;18.50;81.54;92888.50;2055183;70;20407;-82
2023/07/13 05:14:17;;;;;;;;;;;;;;;18.53;81.10;92878.63;2055469;70;20056;-82
2023/07/13 05:16:43;;;;;;;;;;;;;;;18.52;81.15;92879.31;2055378;70;20486;-81
2023/07/13 05:19:09;;;;;;;;;;;;;;;18.41;81.84;92874.63;2055260;69;20058;-83
2023/07/13 05:21:34;;;;;;;;;;;;;;;18.44;80.75;92879.75;2055447;70;20054;-82
2023/07/13 05:24:00;;;;;;;;;;;;;;;18.43;81.12;92883.28;2055750;70;20505;-82
2023/07/13 05:26:25;;;;;;;;;;;;;;;18.47;81.05;92887.00;2054948;69;20046;-80
2023/07/13 05:28:51;;;;;;;;;;;;;;;18.57;81.38;92900.13;2055379;70;20070;-82
2023/07/13 05:31:17;;;;;;;;;;;;;;;18.22;81.42;92902.50;2055420;70;20149;-78
2023/07/13 05:33:43;;;;;;;;;;;;;;;18.77;79.90;92906.53;2055259;70;20149;-78
2023/07/13 05:36:08;;;;;;;;;;;;;;;18.98;78.92;92911.53;2052206;70;20050;-82
2023/07/13 05:38:34;;;;;;;;;;;;;;;18.97;79.76;92904.38;2055484;70;20422;-82
2023/07/13 05:40:59;;;;;;;;;;;;;;;19.12;80.37;92913.41;2051989;70;20050;-81
2023/07/13 05:43:25;;;;;;;;;;;;;;;19.30;80.02;92908.28;2055414;70;20438;-82
2023/07/13 05:45:54;;;;;;;;;;;;;;;19.19;79.23;92903.63;2055302;70;20509;-82
2023/07/13 05:48:19;;;;;;;;;;;;;;;19.20;78.92;92900.13;2055334;70;20513;-81
2023/07/13 05:50:45;;;;;;;;;;;;;;;19.29;79.00;92901.13;2055491;70;20056;-82
2023/07/13 05:53:11;;;;;;;;;;;;;;;19.34;79.46;92901.97;2055507;70;20098;-82
2023/07/13 05:55:40;;;;;;;;;;;;;;;19.30;78.72;92906.16;2052219;70;20051;-80
2023/07/13 05:58:06;;;;;;;;;;;;;;;19.45;77.79;92904.47;2055288;70;20514;-82
2023/07/13 06:00:31;;;;;;;;;;;;;;;19.63;77.11;92904.31;2055337;70;20137;-82
2023/07/13 06:02:58;;;;;;;;;;;;;;;19.76;77.46;92908.28;2055347;70;20141;-81
2023/07/13 06:05:23;;;;;;;;;;;;;;;19.64;76.80;92905.06;2055752;70;20048;-81
2023/07/13 06:07:49;;;;;;;;;;;;;;;19.69;76.30;92912.34;2055434;69;20047;-82
2023/07/13 06:10:15;;;;;;;;;;;;;;;19.53;76.65;92906.84;2055511;70;20153;-83
2023/07/13 06:12:40;;;;;;;;;;;;;;;19.68;76.94;92910.88;2055421;70;20054;-83
2023/07/13 06:15:06;;;;;;;;;;;;;;;19.71;77.44;92910.28;2055151;70;20042;-84
2023/07/13 06:17:33;;;;;;;;;;;;;;;19.73;77.68;92910.34;2055535;70;20145;-83
2023/07/13 06:19:58;;;;;;;;;;;;;;;19.69;78.29;92906.63;2055417;70;20157;-83
2023/07/13 06:22:24;;;;;;;;;;;;;;;19.71;77.07;92903.84;2055420;70;20452;-83
2023/07/13 06:24:49;;;;;;;;;;;;;;;19.66;77.73;92903.00;2055431;70;20097;-83
2023/07/13 06:27:15;;;;;;;;;;;;;;;19.67;77.47;92909.44;2055364;70;20098;-83
2023/07/13 06:29:41;;;;;;;;;;;;;;;19.62;76.98;92896.44;2055019;70;20078;-83
2023/07/13 06:32:07;;;;;;;;;;;;;;;19.51;77.75;92904.66;2055392;70;20113;-84
2023/07/13 06:34:32;;;;;;;;;;;;;;;19.65;78.84;92907.22;2055416;70;20039;-83
2023/07/13 06:36:58;;;;;;;;;;;;;;;19.72;79.99;92902.44;2053001;70;20079;-82
2023/07/13 06:39:23;;;;;;;;;;;;;;;19.91;79.12;92898.00;2056249;69;20109;-82
2023/07/13 06:41:48;;;;;;;;;;;;;;;20.09;80.03;92901.38;2055958;69;20043;-80
2023/07/13 06:44:14;;;;;;;;;;;;;;;20.04;77.98;92908.38;2052579;70;20722;-85
2023/07/13 06:46:39;;;;;;;;;;;;;;;20.14;79.23;92914.38;2055895;69;20047;-84
2023/07/13 06:49:05;;;;;;;;;;;;;;;19.99;76.67;92907.53;2055573;70;20145;-84
2023/07/13 06:51:30;;;;;;;;;;;;;;;19.99;76.61;92906.81;2055275;70;20046;-87
2023/07/13 06:53:56;;;;;;;;;;;;;;;20.23;75.40;92907.50;2056678;69;20054;-83
2023/07/13 06:56:21;;;;;;;;;;;;;;;20.41;75.05;92913.00;2056324;69;20078;-86
2023/07/13 06:58:47;;;;;;;;;;;;;;;20.55;75.67;92916.28;2055795;70;20066;-78
2023/07/13 07:01:14;;;;;;;;;;;;;;;20.41;76.29;92920.84;2055436;69;20490;-82
2023/07/13 07:03:39;;;;;;;;;;;;;;;20.22;73.09;92919.63;2055458;70;20047;-82
2023/07/13 07:06:13;;;;;;;;;;;;;;;20.49;74.85;92929.69;2055490;70;20066;-81
2023/07/13 07:08:41;;;;;;;;;;;;;;;20.34;75.72;92924.94;2055446;70;20050;-82
2023/07/13 07:11:12;;;;;;;;;;;;;;;20.69;74.46;92930.25;2055719;69;20086;-79
2023/07/13 07:13:38;;;;;;;;;;;;;;;20.94;71.86;92923.03;2055784;70;20050;-83
2023/07/13 07:16:03;;;;;;;;;;;;;;;21.33;76.27;92921.16;2055625;70;20057;-82
2023/07/13 07:18:29;;;;;;;;;;;;;;;21.35;76.79;92924.09;2055215;69;20042;-82
2023/07/13 07:20:55;;;;;;;;;;;;;;;21.66;75.17;92919.06;2055522;70;20525;-84
2023/07/13 07:23:20;;;;;;;;;;;;;;;21.28;71.90;92914.56;2055504;70;20049;-82
2023/07/13 07:25:45;;;;;;;;;;;;;;;21.49;70.38;92912.97;2052346;70;20058;-81
2023/07/13 07:28:12;;;;;;;;;;;;;;;21.28;66.74;92916.72;2055597;69;20051;-83
2023/07/13 07:30:41;;;;;;;;;;;;;;;21.58;67.05;92919.63;2055584;70;20058;-83
2023/07/13 07:33:07;;;;;;;;;;;;;;;21.54;66.99;92923.09;2055722;69;20419;-82
2023/07/13 07:35:32;;;;;;;;;;;;;;;21.19;66.95;92915.06;2055408;70;20043;-83
2023/07/13 07:37:57;;;;;;;;;;;;;;;21.90;64.84;92913.88;2055883;69;20152;-81
2023/07/13 07:40:23;;;;;;;;;;;;;;;21.95;65.01;92929.75;2055891;70;20077;-83
2023/07/13 07:42:48;;;;;;;;;;;;;;;22.39;62.81;92937.16;2055909;69;20054;-83
2023/07/13 07:45:14;;;;;;;;;;;;;;;22.72;62.71;92936.38;2055737;70;20019;-82
2023/07/13 07:47:39;;;;;;;;;;;;;;;22.46;63.43;92938.75;2055626;70;20050;-83
2023/07/13 07:50:05;;;;;;;;;;;;;;;22.82;63.16;92938.72;2055277;69;20099;-82
2023/07/13 07:52:30;;;;;;;;;;;;;;;22.77;61.44;92937.19;2052345;70;20073;-82
2023/07/13 07:54:59;;;;;;;;;;;;;;;23.04;66.06;92935.56;2055763;70;20051;-81
2023/07/13 07:57:24;;;;;;;;;;;;;;;23.11;69.01;92928.53;2055796;69;20054;-82
2023/07/13 07:59:50;;;;;;;;;;;;;;;23.13;65.66;92939.31;2055813;70;20047;-83
2023/07/13 08:02:15;;;;;;;;;;;;;;;23.25;66.71;92939.53;2055688;70;20086;-83
2023/07/13 08:04:41;;;;;;;;;;;;;;;23.13;65.92;92934.28;2055679;70;20101;-81
2023/07/13 08:07:06;;;;;;;;;;;;;;;23.13;66.18;92936.44;2055448;69;20120;-79
2023/07/13 08:09:32;;;;;;;;;;;;;;;23.07;67.44;92940.66;2055520;70;20482;-81
2023/07/13 08:11:57;;;;;;;;;;;;;;;23.07;65.83;92939.94;2055742;70;20175;-79
2023/07/13 08:14:22;;;;;;;;;;;;;;;23.06;68.19;92947.09;2055438;70;20053;-79
2023/07/13 08:16:49;;;;;;;;;;;;;;;23.07;66.37;92940.66;2055600;69;20101;-83
2023/07/13 08:19:15;;;;;;;;;;;;;;;23.03;66.70;92943.44;2052095;70;20117;-81
2023/07/13 08:21:42;;;;;;;;;;;;;;;23.18;68.13;92946.56;2055264;70;20167;-81
2023/07/13 08:24:09;;;;;;;;;;;;;;;23.16;67.51;92937.94;2055443;69;20508;-81
2023/07/13 08:26:34;;;;;;;;;;;;;;;23.28;67.09;92936.00;2052220;70;20059;-79
2023/07/13 08:29:00;;;;;;;;;;;;;;;23.40;66.64;92929.00;2052204;70;20419;-79
2023/07/13 08:31:26;;;;;;;;;;;;;;;23.16;67.08;92941.53;2055371;70;20046;-80
2023/07/13 08:33:51;;;;;;;;;;;;;;;23.16;65.98;92935.06;2055180;69;20053;-80
2023/07/13 08:36:16;;;;;;;;;;;;;;;22.95;65.74;92933.97;2055280;70;20206;-81
2023/07/13 08:38:42;;;;;;;;;;;;;;;22.82;66.01;92942.34;2055055;69;20082;-79
2023/07/13 08:41:12;;;;;;;;;;;;;;;22.93;66.14;92933.94;2055085;70;20077;-79
2023/07/13 08:43:38;;;;;;;;;;;;;;;22.94;66.78;92938.25;2055040;70;20058;-83
2023/07/13 08:46:13;;;;;;;;;;;;;;;22.99;67.41;92931.16;2055268;69;20050;-78
2023/07/13 08:48:42;;;;;;;;;;;;;;;23.16;68.68;92937.94;2055336;70;20131;-77
2023/07/13 08:51:10;;;;;;;;;;;;;;;23.11;67.51;92931.38;2051977;70;20406;-77
2023/07/13 08:53:43;;;;;;;;;;;;;;;23.09;63.77;92928.47;2051803;70;20047;-79
2023/07/13 08:56:11;;;;;;;;;;;;;;;23.10;62.73;92944.31;2051945;70;20073;-78
2023/07/13 08:58:38;;;;;;;;;;;;;;;22.70;62.90;92936.34;2055212;70;20039;-81
2023/07/13 09:01:19;;;;;;;;;;;;;;;23.28;62.79;92941.75;2055310;70;20526;-81
2023/07/13 09:03:53;;;;;;;;;;;;;;;22.35;62.47;92943.53;2055287;69;20054;-81
2023/07/13 09:06:23;;;;;;;;;;;;;;;22.20;64.12;92933.19;2055573;69;20054;-81
2023/07/13 09:09:14;;;;;;;;;;;;;;;22.45;62.90;92934.41;2055221;70;20051;-78
2023/07/13 09:11:45;;;;;;;;;;;;;;;22.44;62.03;92936.53;2051043;70;20050;-80
2023/07/13 09:14:37;;;;;;;;;;;;;;;22.75;62.36;92937.88;2051720;70;20063;-80
2023/07/13 09:17:05;;;;;;;;;;;;;;;22.92;61.10;92938.94;2051073;70;20514;-78
2023/07/13 09:19:35;;;;;;;;;;;;;;;22.52;60.19;92939.59;2051283;70;20145;-84
2023/07/13 09:22:02;;;;;;;;;;;;;;;23.11;59.53;92939.28;2048659;70;20216;-81
2023/07/13 09:24:46;;;;;;;;;;;;;;;23.27;58.10;92937.41;2051372;70;20054;-77
2023/07/13 09:27:33;;;;;;;;;;;;;;;23.56;60.75;92927.13;2051326;70;20055;-77
2023/07/13 09:30:04;;;;;;;;;;;;;;;24.08;63.04;92925.75;2051390;70;20046;-80
2023/07/13 09:32:31;;;;;;;;;;;;;;;23.56;58.95;92929.28;2051172;70;20062;-80
2023/07/13 09:34:57;;;;;;;;;;;;;;;23.46;57.36;92917.59;2050983;70;20055;-78
2023/07/13 09:37:32;;;;;;;;;;;;;;;23.59;58.17;92920.00;2051250;70;20055;-79
2023/07/13 09:39:59;;;;;;;;;;;;;;;23.11;60.19;92916.31;2051376;70;20050;-80
2023/07/13 09:42:25;;;;;;;;;;;;;;;24.03;62.40;92922.09;2051581;70;20058;-80
2023/07/13 09:44:54;;;;;;;;;;;;;;;23.33;60.16;92931.06;2051307;70;20511;-79
2023/07/13 09:47:26;;;;;;;;;;;;;;;22.89;60.55;92923.09;2051196;70;20086;-81
2023/07/13 09:49:55;;;;;;;;;;;;;;;22.85;60.88;92928.72;2055275;69;20062;-84
2023/07/13 09:52:21;;;;;;;;;;;;;;;23.86;59.70;92928.31;2055403;70;20145;-80
2023/07/13 09:54:49;;;;;;;;;;;;;;;23.79;58.28;92927.50;2055531;70;20540;-80
2023/07/13 09:57:17;;;;;;;;;;;;;;;23.11;60.38;92922.78;2052233;70;20510;-80
2023/07/13 09:59:46;;;;;;;;;;;;;;;22.97;59.09;92928.28;2055805;70;20050;-78
2023/07/13 10:02:27;;;;;;;;;;;;;;;23.56;59.52;92926.41;2055839;70;20047;-80
2023/07/13 10:04:58;;;;;;;;;;;;;;;23.52;58.26;92914.84;2055688;70;20054;-78
2023/07/13 10:07:24;;;;;;;;;;;;;;;23.78;58.17;92918.16;2056039;70;20141;-78
2023/07/13 10:09:57;;;;;;;;;;;;;;;24.75;58.39;92918.00;2055988;70;20061;-80
2023/07/13 10:12:24;;;;;;;;;;;;;;;25.74;56.74;92908.84;2055923;70;20141;-79
2023/07/13 10:14:51;;;;;;;;;;;;;;;26.41;52.69;92908.59;2056731;70;20138;-79
2023/07/13 10:17:19;;;;;;;;;;;;;;;25.65;52.38;92900.88;2056722;70;20141;-82
2023/07/13 10:19:47;;;;;;;;;;;;;;;25.87;52.03;92906.09;2056538;69;20059;-82
2023/07/13 10:22:18;;;;;;;;;;;;;;;26.67;49.38;92915.94;2056616;70;20081;-83
2023/07/13 10:24:44;;;;;;;;;;;;;;;27.65;50.26;92925.56;2056629;69;20280;-83
2023/07/13 10:27:17;;;;;;;;;;;;;;;26.91;50.11;92921.81;2056886;69;20584;-78
2023/07/13 10:29:45;;;;;;;;;;;;;;;27.51;50.69;92923.41;2056725;69;20177;-79
2023/07/13 10:32:12;;;;;;;;;;;;;;;26.91;48.64;92932.63;2056268;69;20145;-80
2023/07/13 10:34:37;;;;;;;;;;;;;;;27.93;48.36;92921.25;2056716;70;20053;-81
2023/07/13 10:37:05;;;;;;;;;;;;;;;28.39;47.17;92913.97;2056733;70;20054;-82
2023/07/13 10:39:30;;;;;;;;;;;;;;;29.46;46.21;92921.47;2057166;69;20057;-80
2023/07/13 10:42:01;;;;;;;;;;;;;;;30.10;44.95;92919.53;2057108;70;20058;-81
2023/07/13 10:44:29;;;;;;;;;;;;;;;29.42;46.67;92920.78;2057214;70;20433;-81
2023/07/13 10:46:59;;;;;;;;;;;;;;;28.59;45.28;92920.44;2056865;69;20139;-79
2023/07/13 10:49:26;;;;;;;;;;;;;;;28.45;46.08;92905.97;2056155;70;20137;-81
2023/07/13 10:51:52;;;;;;;;;;;;;;;26.68;47.87;92918.13;2056337;70;20433;-80
2023/07/13 10:54:21;;;;;;;;;;;;;;;26.74;47.28;92923.91;2053293;70;20050;-82
2023/07/13 10:56:49;;;;;;;;;;;;;;;27.08;47.33;92911.78;2056423;70;20045;-82
2023/07/13 10:59:16;;;;;;;;;;;;;;;25.25;48.64;92919.28;2056413;69;20197;-81
2023/07/13 11:01:52;;;;;;;;;;;;;;;25.68;48.33;92920.34;2056252;69;20046;-79
2023/07/13 11:04:20;;;;;;;;;;;;;;;25.94;49.14;92910.47;2055725;69;20080;-78
2023/07/13 11:06:49;;;;;;;;;;;;;;;26.68;46.43;92906.56;2052820;70;20080;-79
2023/07/13 11:09:27;;;;;;;;;;;;;;;27.34;46.11;92904.56;2056346;70;20425;-79
2023/07/13 11:11:55;;;;;;;;;;;;;;;29.85;42.19;92898.72;2056178;69;20054;-80
2023/07/13 11:14:35;;;;;;;;;;;;;;;32.76;37.66;92898.38;2056087;70;20084;-80
2023/07/13 11:17:22;;;;;;;;;;;;;;;31.42;38.33;92892.63;2056096;69;20058;-80
2023/07/13 11:19:50;;;;;;;;;;;;;;;36.43;31.83;92888.72;2051866;70;20058;-79
2023/07/13 11:22:21;;;;;;;;;;;;;;;36.98;28.60;92889.03;2051945;70;20149;-82
2023/07/13 11:24:49;;;;;;;;;;;;;;;34.72;31.10;92888.03;2049482;70;20078;-80
2023/07/13 11:27:23;;;;;;;;;;;;;;;32.99;34.56;92887.75;2052228;70;20066;-81
2023/07/13 11:29:49;;;;;;;;;;;;;;;31.53;37.32;92873.56;2052228;70;20130;-80
2023/07/13 11:32:26;;;;;;;;;;;;;;;33.42;35.62;92883.91;2052125;70;20173;-80
2023/07/13 11:34:54;;;;;;;;;;;;;;;38.53;29.85;92891.81;2049464;70;20122;-82
2023/07/13 11:37:23;;;;;;;;;;;;;;;31.82;34.23;92877.47;2052123;70;20054;-81
2023/07/13 11:39:49;;;;;;;;;;;;;;;37.72;30.11;92887.72;2049380;70;20661;-82
2023/07/13 11:42:16;;;;;;;;;;;;;;;35.89;31.00;92877.28;2051967;70;20058;-81
2023/07/13 11:44:49;;;;;;;;;;;;;;;35.83;30.70;92872.34;2051802;70;20043;-83
2023/07/13 11:47:20;;;;;;;;;;;;;;;41.36;25.13;92887.19;2051897;70;20054;-80
2023/07/13 11:49:48;;;;;;;;;;;;;;;42.70;23.19;92886.44;2052073;70;20105;-82
2023/07/13 11:52:16;;;;;;;;;;;;;;;36.96;27.83;92875.13;2052061;70;20149;-81
2023/07/13 11:54:55;;;;;;;;;;;;;;;33.14;31.86;92859.00;2052239;70;20142;-80
2023/07/13 11:57:21;;;;;;;;;;;;;;;32.10;32.93;92861.00;2054864;70;20434;-81
2023/07/13 11:59:47;;;;;;;;;;;;;;;34.88;31.90;92864.91;2053690;70;20046;-77
2023/07/13 12:02:18;;;;;;;;;;;;;;;38.92;25.70;92873.22;2051650;70;20058;-81
2023/07/13 12:04:44;;;;;;;;;;;;;;;36.26;28.18;92862.16;2052462;70;20578;-79
2023/07/13 12:07:18;;;;;;;;;;;;;;;32.91;32.79;92850.00;2052770;70;20094;-80
2023/07/13 12:09:44;;;;;;;;;;;;;;;30.66;36.10;92841.28;2052484;70;20046;-79
2023/07/13 12:12:15;;;;;;;;;;;;;;;30.45;36.60;92848.78;2052395;70;20117;-80
2023/07/13 12:14:40;;;;;;;;;;;;;;;28.67;41.46;92841.47;2051390;70;20046;-78
2023/07/13 12:17:18;;;;;;;;;;;;;;;27.89;42.10;92851.81;2055972;69;20081;-78
2023/07/13 12:19:43;;;;;;;;;;;;;;;28.03;42.51;92848.91;2052453;70;20090;-79
2023/07/13 12:22:11;;;;;;;;;;;;;;;27.82;42.00;92856.91;2053141;70;20075;-83
2023/07/13 12:24:37;;;;;;;;;;;;;;;28.10;41.99;92851.06;2052864;70;20047;-81
2023/07/13 12:27:04;;;;;;;;;;;;;;;27.05;44.81;92854.69;2052810;70;20053;-78
2023/07/13 12:29:33;;;;;;;;;;;;;;;27.29;43.95;92862.66;2052713;70;20053;-82
2023/07/13 12:31:59;;;;;;;;;;;;;;;26.50;45.33;92866.06;2052877;70;20054;-81
2023/07/13 12:34:25;;;;;;;;;;;;;;;27.40;44.54;92858.34;2053685;70;20054;-81
2023/07/13 12:37:01;;;;;;;;;;;;;;;27.57;43.05;92867.72;2053208;70;20054;-81
2023/07/13 12:39:36;;;;;;;;;;;;;;;27.68;44.59;92869.19;2056471;70;20058;-81
2023/07/13 12:42:26;;;;;;;;;;;;;;;28.55;41.67;92870.50;2053340;70;20149;-81
2023/07/13 12:44:59;;;;;;;;;;;;;;;27.75;41.47;92882.22;2055686;70;20426;-81
2023/07/13 12:47:25;;;;;;;;;;;;;;;27.76;41.41;92872.06;2056032;69;20501;-81
2023/07/13 12:49:54;;;;;;;;;;;;;;;28.94;40.37;92871.03;2053961;69;20043;-81